Farnam, Nebraska
Current Conditions -  °F | °C
As of 3:15 AM on Wednesday 22 Oct 2014 (Local Time) from KLXN Reporting Station
Clear Clear  
Wind Chill: 59°   Ceiling: Unl
Heat Index: 59°   Visibility: 10mi
Dew Point: 54°   Wind: 6mph
Humidity: 82%   Direction: 150°SSE
Pressure: 29.95"   Gusts: NA
Location:  40.71°N, 100.21°W
Report Text: KLXN 220815Z AUTO 15005KT 10SM CLR 15/12 A2995 RMK AO2 T01500120
Loading
Personal Weather Stations






























Interactive Weather Map
Tropical Storm Tracking
New forecast layout! Learn more

10-Day Weather Forecast

Advertisements
Track Severe Weather on mobile